Time;durP1;ratioP1;P1;durP2;ratioP2;P2;SDS_P1;SDS_P2;PMS_P1;PMS_P2;Temp;Humidity;BMP_temperature;BMP_pressure;BME280_temperature;BME280_humidity;BME280_pressure;Samples;Min_cycle;Max_cycle;Signal;HPM_P1;HPM_P2
2022/03/03 00:01:49;;;;;;;19.52;8.75;;;;;;;-0.74;62.39;93712.03;5005158;28;20216;-78
2022/03/03 00:04:14;;;;;;;18.67;9.52;;;;;;;-0.76;62.49;93721.97;5005098;28;20018;-79
2022/03/03 00:06:40;;;;;;;16.98;8.88;;;;;;;-0.76;62.72;93714.09;5005001;28;20014;-78
2022/03/03 00:09:05;;;;;;;18.88;9.02;;;;;;;-0.74;62.24;93714.66;5004829;28;20023;-78
2022/03/03 00:11:32;;;;;;;14.63;8.13;;;;;;;-0.77;62.27;93706.50;5004706;28;20029;-78
2022/03/03 00:13:58;;;;;;;18.83;8.80;;;;;;;-0.82;62.18;93702.78;5004881;28;20222;-77
2022/03/03 00:16:24;;;;;;;15.68;8.23;;;;;;;-0.84;62.85;93707.47;5004781;28;20042;-79
2022/03/03 00:18:49;;;;;;;19.77;9.10;;;;;;;-0.84;62.35;93697.00;5019865;28;20101;-78
2022/03/03 00:21:15;;;;;;;18.67;9.25;;;;;;;-0.78;62.86;93695.25;5004699;28;20335;-78
2022/03/03 00:23:41;;;;;;;19.63;9.32;;;;;;;-0.70;62.81;93709.72;5004865;28;20194;-78
2022/03/03 00:26:07;;;;;;;21.45;8.00;;;;;;;-0.69;62.80;93704.25;5004686;28;20022;-79
2022/03/03 00:28:32;;;;;;;14.43;7.53;;;;;;;-0.65;62.43;93702.72;5019759;28;20029;-78
2022/03/03 00:30:58;;;;;;;16.00;8.85;;;;;;;-0.63;62.61;93700.66;5004537;28;20022;-79
2022/03/03 00:33:23;;;;;;;17.13;8.55;;;;;;;-0.61;62.15;93690.72;5004444;28;20053;-78
2022/03/03 00:35:49;;;;;;;18.73;9.10;;;;;;;-0.62;62.74;93704.03;5004264;28;20278;-78
2022/03/03 00:38:15;;;;;;;19.23;9.50;;;;;;;-0.70;62.60;93694.03;5004539;28;20037;-79
2022/03/03 00:40:40;;;;;;;18.30;9.60;;;;;;;-0.69;63.10;93688.53;5004232;28;20088;-78
2022/03/03 00:43:06;;;;;;;16.65;9.40;;;;;;;-0.66;62.97;93695.09;5004234;28;20248;-79
2022/03/03 00:45:36;;;;;;;21.55;9.40;;;;;;;-0.70;63.21;93702.66;5004025;28;20137;-77
2022/03/03 00:48:03;;;;;;;17.48;8.98;;;;;;;-0.60;63.30;93691.50;5003970;28;20023;-78
2022/03/03 00:50:29;;;;;;;16.38;8.55;;;;;;;-0.63;63.18;93690.19;5004082;28;20224;-77
2022/03/03 00:52:54;;;;;;;17.40;8.32;;;;;;;-0.70;63.24;93699.25;5003965;28;20097;-77
2022/03/03 00:55:20;;;;;;;14.93;8.45;;;;;;;-0.62;63.04;93686.50;5004174;28;20037;-77
2022/03/03 00:57:46;;;;;;;15.88;8.82;;;;;;;-0.73;63.07;93694.50;5002711;28;20436;-77
2022/03/03 01:00:12;;;;;;;15.88;9.25;;;;;;;-0.68;63.13;93684.88;5003626;28;20030;-78
2022/03/03 01:02:38;;;;;;;20.67;9.45;;;;;;;-0.65;62.93;93697.47;5003860;28;20038;-78
2022/03/03 01:05:05;;;;;;;19.60;9.60;;;;;;;-0.58;63.58;93689.44;5003827;28;20129;-78
2022/03/03 01:07:30;;;;;;;16.05;8.98;;;;;;;-0.61;63.73;93684.69;5003565;28;20068;-79
2022/03/03 01:09:56;;;;;;;16.58;9.02;;;;;;;-0.67;63.95;93683.84;5003869;28;20026;-78
2022/03/03 01:12:22;;;;;;;15.32;8.20;;;;;;;-0.66;63.15;93687.25;5003872;28;20332;-78
2022/03/03 01:14:47;;;;;;;20.65;8.52;;;;;;;-0.57;63.25;93690.22;5003512;28;20265;-78
2022/03/03 01:17:13;;;;;;;18.00;9.93;;;;;;;-0.58;63.51;93691.25;5003581;28;20037;-78
2022/03/03 01:19:40;;;;;;;17.55;9.38;;;;;;;-0.57;63.37;93679.75;5003733;28;20052;-78
2022/03/03 01:22:06;;;;;;;23.70;9.75;;;;;;;-0.55;63.16;93675.03;5003695;28;20256;-78
2022/03/03 01:24:31;;;;;;;17.35;9.05;;;;;;;-0.57;63.11;93684.97;5003512;28;20019;-77
2022/03/03 01:26:57;;;;;;;22.40;9.90;;;;;;;-0.55;63.41;93683.72;5003522;28;20232;-76
2022/03/03 01:29:23;;;;;;;16.50;9.18;;;;;;;-0.61;63.33;93680.25;5003537;28;20109;-76
2022/03/03 01:31:48;;;;;;;15.65;8.68;;;;;;;-0.52;63.60;93687.66;5003368;28;20033;-78
2022/03/03 01:34:14;;;;;;;21.40;9.95;;;;;;;-0.50;63.18;93686.34;5003250;28;20029;-78
2022/03/03 01:36:39;;;;;;;17.77;9.15;;;;;;;-0.50;63.21;93670.66;5003393;28;20036;-78
2022/03/03 01:39:05;;;;;;;18.17;10.40;;;;;;;-0.48;64.03;93673.03;5003385;28;20018;-77
2022/03/03 01:41:32;;;;;;;20.40;10.27;;;;;;;-0.51;64.07;93668.28;5002072;28;20272;-77
2022/03/03 01:43:58;;;;;;;20.08;9.98;;;;;;;-0.52;64.65;93666.72;5003070;28;20026;-77
2022/03/03 01:46:23;;;;;;;23.40;11.05;;;;;;;-0.46;64.38;93676.19;5003193;28;20090;-77
2022/03/03 01:48:49;;;;;;;18.70;10.18;;;;;;;-0.40;63.94;93664.72;5003144;28;20029;-77
2022/03/03 01:51:15;;;;;;;19.50;10.93;;;;;;;-0.41;63.58;93663.94;5001990;28;20038;-76
2022/03/03 01:53:40;;;;;;;20.08;10.43;;;;;;;-0.38;63.72;93661.84;5003213;28;20018;-77
2022/03/03 01:56:07;;;;;;;18.77;9.32;;;;;;;-0.49;63.69;93661.78;5003063;28;20375;-76
2022/03/03 01:58:33;;;;;;;21.80;11.18;;;;;;;-0.48;64.09;93649.47;5002913;28;20018;-76
2022/03/03 02:00:59;;;;;;;20.65;10.10;;;;;;;-0.49;64.66;93655.72;5003038;28;20048;-77
2022/03/03 02:03:24;;;;;;;23.70;11.13;;;;;;;-0.50;64.17;93643.69;5002941;28;20018;-77
2022/03/03 02:05:50;;;;;;;23.95;11.52;;;;;;;-0.47;64.38;93645.78;5003149;28;20018;-77
2022/03/03 02:08:16;;;;;;;21.73;10.23;;;;;;;-0.51;64.30;93661.22;5003099;28;20014;-77
2022/03/03 02:10:41;;;;;;;21.55;9.85;;;;;;;-0.54;64.19;93642.59;5003111;28;20030;-77
2022/03/03 02:13:07;;;;;;;20.30;9.73;;;;;;;-0.59;64.59;93645.16;5006529;28;20073;-77
2022/03/03 02:15:33;;;;;;;21.75;10.40;;;;;;;-0.53;64.20;93644.16;5006734;28;20054;-77
2022/03/03 02:17:59;;;;;;;16.85;9.38;;;;;;;-0.53;64.33;93652.03;5006850;28;20340;-77
2022/03/03 02:20:30;;;;;;;22.70;10.35;;;;;;;-0.57;64.68;93637.84;5007087;28;20019;-77
2022/03/03 02:22:57;;;;;;;21.85;10.38;;;;;;;-0.61;64.42;93642.81;5006934;28;20220;-76
2022/03/03 02:25:24;;;;;;;18.23;10.13;;;;;;;-0.59;64.56;93639.94;5006881;28;20018;-77
2022/03/03 02:27:50;;;;;;;17.90;10.52;;;;;;;-0.63;65.04;93647.50;5006789;28;20029;-77
2022/03/03 02:30:17;;;;;;;24.92;11.80;;;;;;;-0.68;64.90;93637.75;5006664;28;20030;-77
2022/03/03 02:32:44;;;;;;;21.85;10.55;;;;;;;-0.61;64.65;93643.59;5006864;28;20026;-77
2022/03/03 02:35:10;;;;;;;21.63;10.75;;;;;;;-0.65;65.20;93657.44;5006461;28;20045;-77
2022/03/03 02:37:37;;;;;;;23.75;12.15;;;;;;;-0.69;65.74;93657.13;5006801;28;20093;-79
2022/03/03 02:40:05;;;;;;;24.33;10.80;;;;;;;-0.74;65.87;93651.06;5005298;28;20226;-79
2022/03/03 02:42:31;;;;;;;20.83;11.10;;;;;;;-0.75;66.27;93645.03;5006263;28;20050;-79
2022/03/03 02:44:56;;;;;;;22.17;11.45;;;;;;;-0.72;66.42;93657.63;5006308;28;20141;-78
2022/03/03 02:47:22;;;;;;;27.55;12.85;;;;;;;-0.66;66.85;93654.00;5006695;28;20022;-78
2022/03/03 02:49:47;;;;;;;19.55;10.95;;;;;;;-0.58;66.21;93657.22;5005115;28;20022;-78
2022/03/03 02:52:13;;;;;;;23.02;11.20;;;;;;;-0.64;65.96;93649.31;5006420;28;20029;-77
2022/03/03 02:54:38;;;;;;;22.00;10.07;;;;;;;-0.62;65.75;93662.94;5006133;28;20031;-76
2022/03/03 02:59:49;;;;;;;22.40;11.05;;;;;;;-0.64;66.10;93659.00;5006066;28;20056;-78
2022/03/03 03:02:14;;;;;;;22.50;11.20;;;;;;;-0.67;66.38;93654.25;5006132;28;20014;-78
2022/03/03 03:04:40;;;;;;;22.77;12.15;;;;;;;-0.57;66.11;93654.38;5006104;28;20026;-78
2022/03/03 03:07:06;;;;;;;20.35;11.57;;;;;;;-0.56;65.85;93647.28;5006026;28;20094;-78
2022/03/03 03:09:31;;;;;;;21.90;11.32;;;;;;;-0.49;66.05;93642.63;5005939;28;20073;-77
2022/03/03 03:11:57;;;;;;;20.08;11.13;;;;;;;-0.45;66.22;93654.19;5005966;28;20371;-77
2022/03/03 03:14:22;;;;;;;24.23;10.10;;;;;;;-0.44;66.10;93651.31;5006107;28;20019;-77
2022/03/03 03:16:48;;;;;;;25.35;12.45;;;;;;;-0.46;66.16;93645.53;5005851;28;20026;-79
2022/03/03 03:19:13;;;;;;;20.52;11.07;;;;;;;-0.36;65.79;93654.53;5005991;28;20085;-79
2022/03/03 03:21:38;;;;;;;25.73;12.05;;;;;;;-0.48;66.17;93652.09;5005763;28;20041;-78
2022/03/03 03:24:04;;;;;;;22.92;11.52;;;;;;;-0.50;66.49;93664.63;5005528;28;20022;-78
2022/03/03 03:26:30;;;;;;;26.73;12.75;;;;;;;-0.50;66.71;93656.78;5005735;28;20029;-78
2022/03/03 03:28:55;;;;;;;17.98;11.63;;;;;;;-0.54;66.06;93647.84;5005715;28;20331;-78
2022/03/03 03:31:21;;;;;;;20.80;11.85;;;;;;;-0.57;66.46;93649.13;5005638;28;20054;-78
2022/03/03 03:33:46;;;;;;;25.17;12.18;;;;;;;-0.62;66.07;93651.69;5005604;28;20232;-78
2022/03/03 03:36:12;;;;;;;27.02;12.90;;;;;;;-0.62;66.14;93639.38;5005526;28;20101;-78
2022/03/03 03:38:37;;;;;;;20.38;11.70;;;;;;;-0.62;66.57;93655.09;5005535;28;20058;-78
2022/03/03 03:41:03;;;;;;;26.50;11.93;;;;;;;-0.66;66.53;93650.59;5005250;28;20070;-78
2022/03/03 03:43:28;;;;;;;23.45;12.25;;;;;;;-0.74;66.58;93649.22;5005356;28;20022;-78
2022/03/03 03:45:54;;;;;;;20.73;11.38;;;;;;;-0.71;66.59;93642.69;5005534;28;20018;-78
2022/03/03 03:48:19;;;;;;;22.15;11.50;;;;;;;-0.77;65.85;93649.72;5005378;28;20026;-78
2022/03/03 03:50:45;;;;;;;26.73;11.32;;;;;;;-0.83;66.23;93640.25;5005403;28;20029;-78
2022/03/03 03:53:10;;;;;;;22.48;11.15;;;;;;;-0.87;66.13;93644.41;5005233;28;20022;-78
2022/03/03 03:55:36;;;;;;;26.77;12.30;;;;;;;-0.82;66.09;93634.75;5005108;28;20330;-78
2022/03/03 03:58:02;;;;;;;21.88;10.98;;;;;;;-0.85;65.85;93635.25;5005032;28;20033;-77
2022/03/03 04:00:28;;;;;;;22.52;11.35;;;;;;;-0.79;65.95;93643.94;5005109;28;20022;-77
2022/03/03 04:02:53;;;;;;;23.27;11.63;;;;;;;-0.82;65.89;93641.81;5005163;28;20014;-78
2022/03/03 04:05:19;;;;;;;21.85;11.85;;;;;;;-0.86;66.52;93661.66;5005124;28;20130;-77
2022/03/03 04:07:44;;;;;;;27.48;13.20;;;;;;;-0.86;66.67;93645.97;5004941;28;20022;-77
2022/03/03 04:10:11;;;;;;;23.25;12.55;;;;;;;-0.94;66.70;93646.41;5004659;28;20056;-77
2022/03/03 04:12:37;;;;;;;22.50;11.07;;;;;;;-0.93;66.82;93640.16;5004662;28;20053;-76
2022/03/03 04:15:06;;;;;;;24.63;12.20;;;;;;;-0.90;66.61;93640.44;5004532;28;20313;-77
2022/03/03 04:17:32;;;;;;;19.58;10.63;;;;;;;-0.89;66.45;93636.00;5004625;28;20022;-77
2022/03/03 04:19:58;;;;;;;24.95;11.93;;;;;;;-0.89;66.53;93633.38;5004700;28;20037;-77
2022/03/03 04:22:23;;;;;;;22.67;11.45;;;;;;;-0.93;66.65;93622.63;5004671;28;20076;-76
2022/03/03 04:24:49;;;;;;;28.98;11.60;;;;;;;-0.93;66.35;93611.38;5004591;28;20018;-76
2022/03/03 04:27:15;;;;;;;22.45;11.65;;;;;;;-0.94;66.59;93636.72;5004478;28;20030;-76
2022/03/03 04:29:40;;;;;;;24.90;12.00;;;;;;;-0.88;66.03;93640.97;5004355;28;20065;-76
2022/03/03 04:32:06;;;;;;;25.38;11.45;;;;;;;-0.96;66.47;93638.00;5004482;28;20050;-76
2022/03/03 04:34:31;;;;;;;25.45;12.85;;;;;;;-0.94;66.25;93635.94;5003675;28;20096;-76
2022/03/03 04:36:57;;;;;;;24.75;12.27;;;;;;;-0.94;66.40;93628.88;5004428;28;20026;-75
2022/03/03 04:39:22;;;;;;;24.00;10.70;;;;;;;-0.93;66.74;93630.47;5004233;28;20054;-75
2022/03/03 04:41:48;;;;;;;20.15;11.70;;;;;;;-0.97;66.81;93631.22;5004074;28;20112;-74
2022/03/03 04:44:13;;;;;;;20.67;11.35;;;;;;;-0.96;67.30;93630.94;5004289;28;20109;-75
2022/03/03 04:46:38;;;;;;;21.48;11.50;;;;;;;-0.96;66.78;93624.94;5004122;28;20014;-76
2022/03/03 04:49:04;;;;;;;23.73;12.35;;;;;;;-1.05;66.98;93617.53;5004245;28;20077;-78
2022/03/03 04:51:31;;;;;;;27.67;12.13;;;;;;;-1.03;67.03;93625.13;5004101;28;20033;-78
2022/03/03 04:53:56;;;;;;;20.80;9.82;;;;;;;-1.06;66.85;93631.66;5004042;28;20121;-77
2022/03/03 04:56:23;;;;;;;24.38;11.48;;;;;;;-1.06;66.88;93634.28;5003660;28;20030;-77
2022/03/03 04:58:49;;;;;;;21.00;10.57;;;;;;;-0.99;66.33;93628.06;5004036;28;20230;-77
2022/03/03 05:01:15;;;;;;;25.88;12.20;;;;;;;-1.12;66.25;93627.41;5003880;28;20301;-78
2022/03/03 05:03:41;;;;;;;22.92;11.30;;;;;;;-1.06;67.25;93621.19;5003950;28;20035;-77
2022/03/03 05:06:06;;;;;;;22.55;11.07;;;;;;;-1.12;66.41;93639.69;5003633;28;20068;-77
2022/03/03 05:08:31;;;;;;;22.98;10.98;;;;;;;-1.03;66.67;93631.16;5003665;28;20022;-77
2022/03/03 05:10:57;;;;;;;19.60;9.50;;;;;;;-1.02;66.64;93621.47;5003686;28;20313;-77
2022/03/03 05:13:22;;;;;;;26.30;11.75;;;;;;;-1.09;67.09;93632.13;5003655;28;20029;-77
2022/03/03 05:15:48;;;;;;;23.88;11.23;;;;;;;-1.12;67.85;93624.78;5003375;28;20030;-77
2022/03/03 05:18:14;;;;;;;27.88;12.85;;;;;;;-1.23;67.94;93630.94;5003637;28;20026;-77
2022/03/03 05:20:39;;;;;;;25.90;12.10;;;;;;;-1.24;67.90;93632.00;5003584;28;20026;-77
2022/03/03 05:23:05;;;;;;;26.85;12.95;;;;;;;-1.19;67.66;93631.25;5003526;28;20026;-77
2022/03/03 05:25:31;;;;;;;26.05;12.30;;;;;;;-1.15;66.91;93620.03;5003501;28;20260;-77
2022/03/03 05:28:00;;;;;;;19.50;11.70;;;;;;;-1.10;67.02;93633.19;5003453;28;20125;-77
2022/03/03 05:30:25;;;;;;;24.10;11.90;;;;;;;-1.06;67.14;93631.66;5003533;28;20030;-77
2022/03/03 05:32:51;;;;;;;27.15;13.15;;;;;;;-1.09;66.71;93634.75;5003449;28;20022;-80
2022/03/03 05:35:18;;;;;;;24.67;11.35;;;;;;;-1.03;66.40;93628.53;5003521;28;20072;-79
2022/03/03 05:37:45;;;;;;;24.30;12.10;;;;;;;-0.99;66.37;93628.06;5003197;28;20122;-80
2022/03/03 05:40:11;;;;;;;25.38;12.00;;;;;;;-0.98;66.54;93634.84;5003148;28;20057;-78
2022/03/03 05:42:37;;;;;;;23.15;11.57;;;;;;;-1.01;65.60;93641.38;5003216;28;20216;-79
2022/03/03 05:45:03;;;;;;;20.33;10.48;;;;;;;-1.01;65.61;93630.91;5003320;28;20304;-78
2022/03/03 05:47:29;;;;;;;24.63;11.43;;;;;;;-1.01;65.18;93634.31;5002608;28;20097;-77
2022/03/03 05:49:55;;;;;;;29.23;11.18;;;;;;;-0.97;65.28;93633.84;5002932;28;20368;-77
2022/03/03 05:52:21;;;;;;;23.27;11.00;;;;;;;-0.92;64.89;93631.25;5003152;28;20149;-78
2022/03/03 05:54:46;;;;;;;26.35;11.98;;;;;;;-0.86;65.15;93632.88;5002930;28;20248;-78
2022/03/03 05:57:25;;;;;;;21.30;10.93;;;;;;;-0.88;65.16;93627.09;5018225;28;20018;-78
2022/03/03 05:59:51;;;;;;;28.75;11.98;;;;;;;-0.93;65.30;93630.47;5003011;28;20026;-78
2022/03/03 06:02:20;;;;;;;24.55;12.00;;;;;;;-0.92;65.13;93649.56;5002925;28;20137;-78
2022/03/03 06:04:48;;;;;;;25.38;12.35;;;;;;;-0.97;65.09;93649.53;5002742;28;20118;-78
2022/03/03 06:07:22;;;;;;;26.33;11.30;;;;;;;-0.95;64.94;93652.69;5002950;28;20046;-78
2022/03/03 06:09:55;;;;;;;25.63;12.52;;;;;;;-0.98;65.34;93635.63;5018045;28;20026;-79
2022/03/03 06:12:28;;;;;;;25.73;11.90;;;;;;;-0.94;65.15;93649.03;5002599;28;20022;-79
2022/03/03 06:14:59;;;;;;;24.15;11.52;;;;;;;-0.96;64.93;93636.19;5002801;28;20224;-79
2022/03/03 06:17:25;;;;;;;30.25;11.98;;;;;;;-0.88;64.44;93634.97;5002919;28;20156;-79
2022/03/03 06:19:52;;;;;;;26.48;12.70;;;;;;;-0.84;64.66;93625.56;5002691;28;20212;-78
2022/03/03 06:22:19;;;;;;;23.10;11.50;;;;;;;-0.81;63.97;93632.94;5002783;28;20188;-79
2022/03/03 06:24:45;;;;;;;26.00;10.77;;;;;;;-0.85;63.46;93630.03;5002611;28;20086;-79
2022/03/03 06:27:12;;;;;;;28.25;12.73;;;;;;;-0.85;63.43;93634.47;5002729;28;20029;-79
2022/03/03 06:29:38;;;;;;;31.55;11.38;;;;;;;-0.77;63.09;93644.50;5002794;28;20026;-78
2022/03/03 06:32:04;;;;;;;21.98;11.02;;;;;;;-0.73;63.29;93645.59;5002518;28;20375;-76
2022/03/03 06:34:30;;;;;;;24.17;10.93;;;;;;;-0.70;62.85;93629.38;5002676;28;20030;-77
2022/03/03 06:36:55;;;;;;;30.63;13.35;;;;;;;-0.63;62.95;93629.97;5002640;28;20089;-77
2022/03/03 06:39:21;;;;;;;22.30;10.85;;;;;;;-0.62;61.94;93647.25;5002814;28;20085;-79
2022/03/03 06:41:46;;;;;;;25.17;11.80;;;;;;;-0.57;62.13;93637.84;5002577;28;20046;-78
2022/03/03 06:44:12;;;;;;;24.80;10.07;;;;;;;-0.57;61.71;93632.63;5002528;28;20376;-78
2022/03/03 06:46:38;;;;;;;21.40;11.40;;;;;;;-0.59;61.42;93651.22;5002683;28;20022;-76
2022/03/03 06:49:04;;;;;;;28.08;12.02;;;;;;;-0.57;61.90;93645.69;5002727;28;20022;-77
2022/03/03 06:51:37;;;;;;;20.13;10.57;;;;;;;-0.60;61.79;93639.16;5002862;28;20022;-78
2022/03/03 06:54:04;;;;;;;22.85;11.13;;;;;;;-0.59;61.17;93653.81;5002833;28;20027;-77
2022/03/03 06:56:30;;;;;;;23.40;10.48;;;;;;;-0.60;61.79;93636.53;5002750;28;20282;-77
2022/03/03 06:58:59;;;;;;;30.48;12.60;;;;;;;-0.55;61.56;93641.81;5005518;28;20038;-77
2022/03/03 07:01:27;;;;;;;24.50;10.43;;;;;;;-0.53;60.78;93628.47;5006058;28;20034;-77
2022/03/03 07:03:53;;;;;;;20.23;11.38;;;;;;;-0.53;61.13;93652.84;5006237;28;20276;-76
2022/03/03 07:06:19;;;;;;;21.45;10.13;;;;;;;-0.48;60.76;93657.31;5005957;28;20045;-75
2022/03/03 07:08:46;;;;;;;24.05;11.25;;;;;;;-0.45;60.82;93651.56;5005885;28;20144;-75
2022/03/03 07:11:13;;;;;;;28.77;11.63;;;;;;;-0.33;60.80;93667.13;5004791;28;20052;-77
2022/03/03 07:13:38;;;;;;;27.17;11.50;;;;;;;-0.26;60.60;93642.31;5005865;28;20034;-77
2022/03/03 07:16:36;;;;;;;24.65;12.57;;;;;;;-0.19;60.12;93644.69;5005586;28;20030;-78
2022/03/03 07:19:03;;;;;;;25.63;10.98;;;;;;;-0.16;60.01;93648.66;4988693;28;20331;-78
2022/03/03 07:21:37;;;;;;;21.95;11.20;;;;;;;-0.07;59.86;93642.69;5005516;28;20105;-77
2022/03/03 07:24:15;;;;;;;21.08;10.27;;;;;;;-0.15;59.79;93645.00;5005494;28;20255;-76
2022/03/03 07:26:42;;;;;;;23.83;11.45;;;;;;;-0.05;59.91;93639.84;5005527;28;20022;-74
2022/03/03 07:29:10;;;;;;;22.40;11.15;;;;;;;-0.09;59.38;93638.75;5005440;28;20272;-74
2022/03/03 07:31:45;;;;;;;21.83;10.40;;;;;;;-0.09;59.23;93642.16;5005572;28;20022;-74
2022/03/03 07:34:13;;;;;;;21.92;9.45;;;;;;;-0.06;58.92;93638.22;5005048;28;20034;-73
2022/03/03 07:36:42;;;;;;;21.05;9.05;;;;;;;0.06;58.61;93641.50;5005330;28;20178;-80
2022/03/03 07:39:14;;;;;;;17.27;9.20;;;;;;;0.21;58.90;93653.88;5020484;28;20225;-80
2022/03/03 07:41:41;;;;;;;;;;;;;;;0.29;58.72;93639.53;5005191;28;20117;-80
2022/03/03 07:44:07;;;;;;;22.92;10.02;;;;;;;0.45;58.10;93638.56;5003932;28;19917;-72
2022/03/03 07:46:32;;;;;;;20.38;10.00;;;;;;;0.55;57.25;93633.34;5004799;28;20343;-75
2022/03/03 07:49:00;;;;;;;21.02;9.60;;;;;;;0.70;57.69;93634.47;5004918;28;20205;-71
2022/03/03 07:51:27;;;;;;;19.90;9.43;;;;;;;0.77;56.51;93641.06;5004848;28;20026;-71
2022/03/03 07:53:53;;;;;;;27.55;12.13;;;;;;;0.87;56.88;93652.63;5004844;28;20044;-71
2022/03/03 07:56:28;;;;;;;19.20;10.13;;;;;;;0.75;56.87;93650.19;5004664;28;20046;-71
2022/03/03 07:59:04;;;;;;;30.98;12.85;;;;;;;0.91;56.67;93641.34;5004871;28;20038;-71
2022/03/03 08:01:31;;;;;;;25.05;11.32;;;;;;;0.97;56.84;93635.06;5005110;28;20037;-72
2022/03/03 08:04:00;;;;;;;17.98;9.05;;;;;;;1.02;56.18;93646.63;5004804;28;20022;-71
2022/03/03 08:06:26;;;;;;;18.92;9.80;;;;;;;1.09;55.10;93641.94;5004664;28;20029;-71
2022/03/03 08:08:54;;;;;;;19.95;9.18;;;;;;;1.11;55.51;93652.94;5003752;28;20022;-71
2022/03/03 08:11:22;;;;;;;16.98;9.18;;;;;;;0.91;54.17;93640.56;5004778;28;20027;-71
2022/03/03 08:13:52;;;;;;;16.33;8.65;;;;;;;0.86;55.10;93672.81;5004642;28;20030;-71
2022/03/03 08:16:18;;;;;;;17.95;8.60;;;;;;;1.04;55.17;93641.91;5004833;28;20023;-71
2022/03/03 08:18:46;;;;;;;18.83;8.63;;;;;;;1.13;54.54;93656.91;5005000;28;20029;-71
2022/03/03 08:21:13;;;;;;;13.70;6.50;;;;;;;1.23;53.51;93653.50;5004697;28;20029;-71
2022/03/03 08:23:40;;;;;;;16.45;7.25;;;;;;;1.21;53.12;93629.34;5004485;28;20018;-72
2022/03/03 08:26:06;;;;;;;17.38;8.00;;;;;;;1.24;53.02;93647.19;5004702;28;20094;-72
2022/03/03 08:28:32;;;;;;;17.02;7.88;;;;;;;1.21;53.31;93642.47;5003558;28;20022;-73
2022/03/03 08:31:01;;;;;;;15.20;7.38;;;;;;;1.06;53.54;93637.19;5004718;28;20022;-72
2022/03/03 08:33:45;;;;;;;12.60;7.00;;;;;;;0.99;54.28;93647.94;5004548;28;20109;-71
2022/03/03 08:36:25;;;;;;;22.05;11.38;;;;;;;1.10;53.79;93654.00;5004450;28;20030;-72
2022/03/03 08:38:52;;;;;;;17.55;8.30;;;;;;;1.12;53.59;93657.94;5004406;28;20021;-71
2022/03/03 08:41:22;;;;;;;15.52;7.82;;;;;;;1.14;53.38;93640.09;5004028;28;20057;-72
2022/03/03 08:43:51;;;;;;;16.13;7.80;;;;;;;1.26;53.60;93639.84;5004344;28;20030;-72
2022/03/03 08:46:30;;;;;;;27.27;8.95;;;;;;;1.49;53.11;93637.81;5004456;28;20022;-72
2022/03/03 08:48:59;;;;;;;16.17;8.95;;;;;;;1.52;53.00;93651.19;5019566;28;20022;-72
2022/03/03 08:51:26;;;;;;;19.13;8.25;;;;;;;1.58;53.73;93649.34;5004218;28;20221;-71
2022/03/03 08:53:58;;;;;;;17.17;7.97;;;;;;;1.60;53.25;93647.25;5004117;28;20092;-72
2022/03/03 08:56:23;;;;;;;18.88;7.95;;;;;;;1.42;53.17;93630.16;5003988;28;20041;-73
2022/03/03 08:58:51;;;;;;;17.38;8.90;;;;;;;1.36;53.61;93647.78;5004187;28;20026;-73
2022/03/03 09:01:16;;;;;;;14.98;8.48;;;;;;;1.41;53.45;93636.47;5018992;28;20316;-73
2022/03/03 09:03:43;;;;;;;16.42;8.57;;;;;;;1.44;53.71;93646.44;5003804;28;20142;-72
2022/03/03 09:06:12;;;;;;;13.93;8.52;;;;;;;1.40;54.43;93648.81;5003787;28;20018;-72
2022/03/03 09:08:38;;;;;;;17.17;8.27;;;;;;;1.52;53.33;93643.31;5003997;28;20030;-73
2022/03/03 09:11:03;;;;;;;20.42;9.13;;;;;;;1.55;53.00;93634.91;5002579;28;20312;-72
2022/03/03 09:13:29;;;;;;;17.38;9.05;;;;;;;1.72;53.83;93628.59;5003633;28;20375;-73
2022/03/03 09:15:54;;;;;;;17.50;7.88;;;;;;;1.91;53.42;93631.47;5003624;28;20320;-72
2022/03/03 09:18:20;;;;;;;18.95;9.35;;;;;;;2.02;52.88;93627.03;5003889;28;20316;-72
2022/03/03 09:20:45;;;;;;;21.55;8.82;;;;;;;2.08;52.84;93628.59;5003481;28;20030;-72
2022/03/03 09:23:10;;;;;;;14.80;8.18;;;;;;;2.14;52.78;93638.03;5003746;28;20022;-72
2022/03/03 09:25:36;;;;;;;20.30;8.80;;;;;;;2.07;51.91;93638.28;5003721;28;20033;-72
2022/03/03 09:28:03;;;;;;;15.85;8.48;;;;;;;2.04;51.65;93630.97;5003918;28;20021;-72
2022/03/03 09:30:29;;;;;;;15.70;8.00;;;;;;;2.18;52.26;93642.50;5002619;28;20224;-73
2022/03/03 09:32:55;;;;;;;18.67;7.95;;;;;;;2.04;50.72;93636.22;5003503;28;20023;-73
2022/03/03 09:35:20;;;;;;;16.23;7.20;;;;;;;2.12;52.67;93640.94;5003657;28;20044;-73
2022/03/03 09:37:46;;;;;;;16.30;8.55;;;;;;;2.13;52.21;93644.34;5003334;28;20053;-73
2022/03/03 09:40:12;;;;;;;16.10;7.00;;;;;;;2.04;50.87;93636.22;5003369;28;20046;-73
2022/03/03 09:42:37;;;;;;;25.80;8.43;;;;;;;2.08;51.83;93632.00;5003291;28;20105;-72
2022/03/03 09:45:08;;;;;;;19.50;8.27;;;;;;;2.14;51.86;93641.47;5003599;28;20029;-73
2022/03/03 09:47:35;;;;;;;18.38;9.07;;;;;;;2.09;52.05;93641.44;5003114;28;20321;-72
2022/03/03 09:50:01;;;;;;;26.48;8.85;;;;;;;2.16;52.52;93628.84;5003460;28;20076;-73
2022/03/03 09:52:28;;;;;;;19.15;9.88;;;;;;;2.23;52.61;93636.44;5003439;28;20058;-73
2022/03/03 09:54:55;;;;;;;18.13;8.18;;;;;;;2.17;51.63;93630.41;5003417;28;20225;-72
2022/03/03 09:57:21;;;;;;;14.73;7.18;;;;;;;2.13;51.32;93642.50;5003361;28;20030;-72
2022/03/03 09:59:47;;;;;;;17.60;8.88;;;;;;;2.25;50.96;93630.91;5003149;28;20286;-72
2022/03/03 10:02:13;;;;;;;15.38;8.23;;;;;;;2.35;50.04;93626.41;5003077;28;20022;-73
2022/03/03 10:04:39;;;;;;;15.40;6.90;;;;;;;2.45;50.87;93627.47;5002920;28;20101;-73
2022/03/03 10:07:06;;;;;;;18.13;8.55;;;;;;;2.55;49.52;93627.44;5003114;28;20224;-73
2022/03/03 10:09:32;;;;;;;13.65;7.57;;;;;;;2.58;49.04;93625.03;5003162;28;20049;-72
2022/03/03 10:12:08;;;;;;;16.17;7.15;;;;;;;2.69;49.32;93619.75;5002998;28;20069;-73
2022/03/03 10:14:37;;;;;;;15.50;7.32;;;;;;;2.54;50.04;93613.47;5001984;28;20045;-73
2022/03/03 10:17:03;;;;;;;14.57;7.30;;;;;;;2.72;49.34;93619.19;5003396;28;20257;-72
2022/03/03 10:19:29;;;;;;;13.80;7.18;;;;;;;2.69;48.59;93620.53;5003365;28;20026;-73
2022/03/03 10:21:55;;;;;;;12.07;7.43;;;;;;;2.35;50.40;93628.25;5003145;28;20022;-73
2022/03/03 10:24:24;;;;;;;19.65;7.97;;;;;;;2.40;49.87;93617.72;5003186;28;20034;-73
2022/03/03 10:27:07;;;;;;;13.30;6.45;;;;;;;2.46;50.20;93623.75;5003150;28;20089;-73
2022/03/03 10:29:34;;;;;;;14.85;7.68;;;;;;;2.37;49.73;93634.06;5003080;28;20048;-73
2022/03/03 10:32:02;;;;;;;18.13;7.97;;;;;;;2.42;51.10;93631.38;5003395;28;20026;-73
2022/03/03 10:34:37;;;;;;;12.52;6.68;;;;;;;2.35;49.72;93621.16;5006896;28;20030;-73
2022/03/03 10:37:06;;;;;;;17.40;7.90;;;;;;;2.47;50.90;93617.47;5006810;28;20221;-72
2022/03/03 10:39:39;;;;;;;18.38;7.47;;;;;;;2.54;49.69;93631.88;5006817;28;20063;-73
2022/03/03 10:42:13;;;;;;;16.10;7.75;;;;;;;2.65;49.21;93613.44;5006636;28;20233;-72
2022/03/03 10:44:39;;;;;;;15.30;7.35;;;;;;;2.64;49.53;93601.34;5006782;28;20022;-73
2022/03/03 10:47:08;;;;;;;15.82;6.75;;;;;;;2.66;48.24;93605.28;5006882;28;20022;-72
2022/03/03 10:49:38;;;;;;;16.27;6.53;;;;;;;2.67;48.96;93611.34;5006868;28;20030;-73
2022/03/03 10:52:16;;;;;;;18.92;7.75;;;;;;;2.46;49.28;93600.88;5006688;28;20049;-72
2022/03/03 10:55:03;;;;;;;14.60;6.85;;;;;;;2.47;49.70;93599.03;5005973;28;20213;-72
2022/03/03 10:57:45;;;;;;;19.77;7.53;;;;;;;2.38;49.37;93596.16;5006522;28;20317;-72
2022/03/03 11:00:13;;;;;;;13.88;7.05;;;;;;;2.36;50.58;93617.50;5006513;28;20025;-72
2022/03/03 11:02:50;;;;;;;12.70;7.32;;;;;;;2.37;50.05;93623.53;5006371;28;20022;-72
2022/03/03 11:05:17;;;;;;;15.95;8.38;;;;;;;2.36;50.54;93614.03;5006354;28;20305;-72
2022/03/03 11:07:45;;;;;;;13.60;7.90;;;;;;;2.36;50.30;93606.16;5006005;28;20026;-72
2022/03/03 11:10:13;;;;;;;16.55;7.47;;;;;;;2.33;49.91;93596.97;5005947;28;20038;-72
2022/03/03 11:12:40;;;;;;;18.42;7.72;;;;;;;2.31;50.57;93614.06;5005787;28;20034;-72
2022/03/03 11:15:07;;;;;;;16.80;7.43;;;;;;;2.38;50.73;93598.78;5005695;28;20041;-72
2022/03/03 11:17:34;;;;;;;17.50;8.68;;;;;;;2.52;50.75;93610.31;5005846;28;20022;-72
2022/03/03 11:20:00;;;;;;;16.30;8.30;;;;;;;2.64;49.91;93602.13;5005751;28;20280;-72
2022/03/03 11:22:33;;;;;;;12.85;7.20;;;;;;;2.67;49.66;93604.22;5005778;28;20089;-72
2022/03/03 11:25:03;;;;;;;14.85;7.00;;;;;;;2.74;49.59;93611.81;5006012;28;20231;-73
2022/03/03 11:27:37;;;;;;;19.23;8.25;;;;;;;2.85;49.03;93610.75;5005661;28;20033;-72